sensor_id;sensor_type;location;lat;lon;timestamp;pressure;altitude;pressure_sealevel;temperature;humidity
37878;BME280;23715;53.652;8.516;2023-08-06T10:35:46;103535.25;;;18.94;100.00
37878;BME280;23715;53.652;8.516;2023-08-06T10:45:59;103135.13;;;20.21;100.00
37878;BME280;23715;53.652;8.516;2023-08-06T10:51:00;102509.06;;;20.79;100.00
37878;BME280;23715;53.652;8.516;2023-08-06T10:56:15;101838.21;;;20.80;100.00
37878;BME280;23715;53.652;8.516;2023-08-06T11:01:15;101321.46;;;20.89;100.00
37878;BME280;23715;53.652;8.516;2023-08-06T11:06:20;100986.66;;;21.06;100.00
37878;BME280;23715;53.652;8.516;2023-08-06T11:11:22;100815.20;;;21.17;100.00
37878;BME280;23715;53.652;8.516;2023-08-06T11:16:24;100721.45;;;21.06;100.00
37878;BME280;23715;53.652;8.516;2023-08-06T11:21:25;100670.44;;;21.09;100.00
37878;BME280;23715;53.652;8.516;2023-08-06T11:26:25;100652.09;;;21.27;100.00
37878;BME280;23715;53.652;8.516;2023-08-06T11:31:27;100633.55;;;21.22;100.00
37878;BME280;23715;53.652;8.516;2023-08-06T11:36:36;100630.19;;;21.20;100.00
37878;BME280;23715;53.652;8.516;2023-08-06T11:41:36;100625.91;;;21.29;100.00
37878;BME280;23715;53.652;8.516;2023-08-06T11:46:56;100631.95;;;21.48;100.00
37878;BME280;23715;53.652;8.516;2023-08-06T11:51:59;100636.70;;;21.63;100.00
37878;BME280;23715;53.652;8.516;2023-08-06T11:56:59;100640.70;;;21.48;100.00
37878;BME280;23715;53.652;8.516;2023-08-06T12:02:03;100636.59;;;21.68;100.00
37878;BME280;23715;53.652;8.516;2023-08-06T12:07:06;100629.23;;;21.75;100.00
37878;BME280;23715;53.652;8.516;2023-08-06T12:12:08;100635.72;;;22.00;100.00
37878;BME280;23715;53.652;8.516;2023-08-06T12:17:10;100640.88;;;22.26;100.00
37878;BME280;23715;53.652;8.516;2023-08-06T12:22:11;100637.00;;;22.05;100.00
37878;BME280;23715;53.652;8.516;2023-08-06T12:27:13;100643.76;;;21.82;100.00
37878;BME280;23715;53.652;8.516;2023-08-06T12:32:15;100665.33;;;21.81;100.00
37878;BME280;23715;53.652;8.516;2023-08-06T12:37:15;100651.97;;;21.95;100.00
37878;BME280;23715;53.652;8.516;2023-08-06T12:42:16;100643.71;;;22.22;100.00
37878;BME280;23715;53.652;8.516;2023-08-06T12:47:16;100657.63;;;21.16;100.00
37878;BME280;23715;53.652;8.516;2023-08-06T12:52:16;100685.22;;;21.66;100.00
37878;BME280;23715;53.652;8.516;2023-08-06T12:57:18;100680.81;;;22.05;100.00
37878;BME280;23715;53.652;8.516;2023-08-06T13:02:19;100653.18;;;22.33;100.00
37878;BME280;23715;53.652;8.516;2023-08-06T13:07:20;100645.19;;;22.11;100.00
37878;BME280;23715;53.652;8.516;2023-08-06T13:12:19;100646.27;;;21.90;100.00
37878;BME280;23715;53.652;8.516;2023-08-06T13:17:24;100643.42;;;22.57;100.00
37878;BME280;23715;53.652;8.516;2023-08-06T13:22:26;100627.59;;;22.66;100.00
37878;BME280;23715;53.652;8.516;2023-08-06T13:27:27;100637.31;;;22.61;100.00
37878;BME280;23715;53.652;8.516;2023-08-06T13:32:29;100637.41;;;22.57;100.00
37878;BME280;23715;53.652;8.516;2023-08-06T13:37:31;100642.09;;;22.50;100.00
37878;BME280;23715;53.652;8.516;2023-08-06T13:42:31;100641.21;;;22.27;100.00
37878;BME280;23715;53.652;8.516;2023-08-06T13:47:32;100655.88;;;22.53;100.00
37878;BME280;23715;53.652;8.516;2023-08-06T13:52:35;100646.20;;;22.44;100.00
37878;BME280;23715;53.652;8.516;2023-08-06T13:57:44;100639.85;;;22.56;100.00
37878;BME280;23715;53.652;8.516;2023-08-06T14:02:44;100641.81;;;22.88;100.00
37878;BME280;23715;53.652;8.516;2023-08-06T14:07:44;100643.00;;;22.60;100.00
37878;BME280;23715;53.652;8.516;2023-08-06T14:12:44;100639.53;;;22.85;100.00
37878;BME280;23715;53.652;8.516;2023-08-06T14:17:44;100636.51;;;23.38;100.00
37878;BME280;23715;53.652;8.516;2023-08-06T14:22:44;100629.52;;;23.67;100.00
37878;BME280;23715;53.652;8.516;2023-08-06T14:27:44;100618.89;;;23.52;100.00
37878;BME280;23715;53.652;8.516;2023-08-06T14:32:45;100621.97;;;23.63;100.00
37878;BME280;23715;53.652;8.516;2023-08-06T14:37:44;100628.16;;;23.26;100.00
37878;BME280;23715;53.652;8.516;2023-08-06T14:42:46;100634.20;;;23.35;100.00
37878;BME280;23715;53.652;8.516;2023-08-06T14:47:46;100633.42;;;23.28;100.00
37878;BME280;23715;53.652;8.516;2023-08-06T14:52:45;100629.55;;;23.19;100.00
37878;BME280;23715;53.652;8.516;2023-08-06T14:57:47;100636.38;;;23.42;100.00
37878;BME280;23715;53.652;8.516;2023-08-06T15:02:48;100635.39;;;23.14;100.00
37878;BME280;23715;53.652;8.516;2023-08-06T15:07:49;100650.23;;;22.70;100.00
37878;BME280;23715;53.652;8.516;2023-08-06T15:12:49;100646.87;;;22.91;100.00
37878;BME280;23715;53.652;8.516;2023-08-06T15:17:52;100647.23;;;23.01;100.00
37878;BME280;23715;53.652;8.516;2023-08-06T15:22:53;100658.04;;;22.96;100.00
37878;BME280;23715;53.652;8.516;2023-08-06T15:27:55;100654.80;;;23.12;100.00
37878;BME280;23715;53.652;8.516;2023-08-06T15:32:55;100658.33;;;22.97;100.00
37878;BME280;23715;53.652;8.516;2023-08-06T15:37:55;100662.69;;;22.66;100.00
37878;BME280;23715;53.652;8.516;2023-08-06T15:42:55;100654.09;;;22.49;100.00
37878;BME280;23715;53.652;8.516;2023-08-06T15:47:55;100650.80;;;22.27;100.00
37878;BME280;23715;53.652;8.516;2023-08-06T15:52:59;100650.87;;;22.10;100.00
37878;BME280;23715;53.652;8.516;2023-08-06T15:57:59;100651.93;;;22.35;100.00
37878;BME280;23715;53.652;8.516;2023-08-06T16:02:59;100646.38;;;22.55;100.00
37878;BME280;23715;53.652;8.516;2023-08-06T16:08:00;100643.94;;;22.86;100.00
37878;BME280;23715;53.652;8.516;2023-08-06T16:12:59;100647.20;;;22.92;100.00
37878;BME280;23715;53.652;8.516;2023-08-06T16:18:00;100641.35;;;23.04;100.00
37878;BME280;23715;53.652;8.516;2023-08-06T16:23:00;100642.08;;;22.79;100.00
37878;BME280;23715;53.652;8.516;2023-08-06T16:28:00;100641.88;;;22.97;100.00
37878;BME280;23715;53.652;8.516;2023-08-06T16:33:01;100642.14;;;22.89;100.00
37878;BME280;23715;53.652;8.516;2023-08-06T16:38:01;100645.57;;;23.00;100.00
37878;BME280;23715;53.652;8.516;2023-08-06T16:43:01;100656.53;;;22.77;100.00
37878;BME280;23715;53.652;8.516;2023-08-06T16:48:01;100653.52;;;22.63;100.00
37878;BME280;23715;53.652;8.516;2023-08-06T16:53:02;100669.96;;;22.63;100.00
37878;BME280;23715;53.652;8.516;2023-08-06T16:58:02;100673.19;;;22.47;100.00
37878;BME280;23715;53.652;8.516;2023-08-06T17:03:03;100677.86;;;22.26;100.00
37878;BME280;23715;53.652;8.516;2023-08-06T17:08:02;100684.06;;;22.04;100.00
37878;BME280;23715;53.652;8.516;2023-08-06T17:13:03;100689.11;;;22.00;100.00
37878;BME280;23715;53.652;8.516;2023-08-06T17:18:03;100694.40;;;21.82;100.00
37878;BME280;23715;53.652;8.516;2023-08-06T17:23:04;100693.32;;;21.70;100.00
37878;BME280;23715;53.652;8.516;2023-08-06T17:28:03;100700.60;;;21.67;100.00
37878;BME280;23715;53.652;8.516;2023-08-06T17:33:03;100712.93;;;21.80;100.00
37878;BME280;23715;53.652;8.516;2023-08-06T17:38:04;100716.93;;;21.84;100.00
37878;BME280;23715;53.652;8.516;2023-08-06T17:43:03;100722.17;;;21.79;100.00
37878;BME280;23715;53.652;8.516;2023-08-06T17:48:04;100723.32;;;21.74;100.00
37878;BME280;23715;53.652;8.516;2023-08-06T17:53:05;100735.42;;;21.55;100.00
37878;BME280;23715;53.652;8.516;2023-08-06T17:58:06;100737.95;;;21.33;100.00
37878;BME280;23715;53.652;8.516;2023-08-06T18:03:06;100742.33;;;21.51;100.00
37878;BME280;23715;53.652;8.516;2023-08-06T18:08:06;100740.59;;;21.43;100.00
37878;BME280;23715;53.652;8.516;2023-08-06T18:13:06;100746.69;;;21.08;100.00
37878;BME280;23715;53.652;8.516;2023-08-06T18:18:08;100747.44;;;21.13;100.00
37878;BME280;23715;53.652;8.516;2023-08-06T18:23:11;100745.13;;;21.10;100.00
37878;BME280;23715;53.652;8.516;2023-08-06T18:28:11;100746.55;;;21.23;100.00
37878;BME280;23715;53.652;8.516;2023-08-06T18:33:14;100744.69;;;21.37;100.00
37878;BME280;23715;53.652;8.516;2023-08-06T18:38:17;100749.05;;;21.24;100.00
37878;BME280;23715;53.652;8.516;2023-08-06T18:43:19;100754.02;;;21.01;100.00
37878;BME280;23715;53.652;8.516;2023-08-06T18:48:20;100758.59;;;20.94;100.00
37878;BME280;23715;53.652;8.516;2023-08-06T18:53:20;100764.84;;;20.98;100.00
37878;BME280;23715;53.652;8.516;2023-08-06T18:58:40;100757.53;;;21.12;100.00
37878;BME280;23715;53.652;8.516;2023-08-06T19:03:27;100752.51;;;21.16;100.00
37878;BME280;23715;53.652;8.516;2023-08-06T19:08:34;100753.23;;;21.14;100.00
37878;BME280;23715;53.652;8.516;2023-08-06T19:13:35;100749.18;;;21.03;100.00
37878;BME280;23715;53.652;8.516;2023-08-06T19:18:35;100761.50;;;20.85;100.00
37878;BME280;23715;53.652;8.516;2023-08-06T19:23:36;100767.58;;;20.98;100.00
37878;BME280;23715;53.652;8.516;2023-08-06T19:28:40;100769.84;;;21.12;100.00
37878;BME280;23715;53.652;8.516;2023-08-06T19:33:42;100771.80;;;20.66;100.00
37878;BME280;23715;53.652;8.516;2023-08-06T19:38:42;100767.48;;;20.67;100.00
37878;BME280;23715;53.652;8.516;2023-08-06T19:43:43;100765.05;;;20.79;100.00
37878;BME280;23715;53.652;8.516;2023-08-06T19:48:42;100767.53;;;20.74;100.00
37878;BME280;23715;53.652;8.516;2023-08-06T19:53:43;100771.96;;;20.93;100.00
37878;BME280;23715;53.652;8.516;2023-08-06T19:58:43;100779.78;;;20.67;100.00
37878;BME280;23715;53.652;8.516;2023-08-06T20:03:43;100799.24;;;20.19;100.00
37878;BME280;23715;53.652;8.516;2023-08-06T20:08:43;100793.86;;;20.15;100.00
37878;BME280;23715;53.652;8.516;2023-08-06T20:13:44;100799.03;;;19.88;100.00
37878;BME280;23715;53.652;8.516;2023-08-06T20:18:45;100788.06;;;19.81;100.00
37878;BME280;23715;53.652;8.516;2023-08-06T20:23:45;100775.59;;;19.57;100.00
37878;BME280;23715;53.652;8.516;2023-08-06T20:28:45;100778.60;;;19.37;100.00
37878;BME280;23715;53.652;8.516;2023-08-06T20:33:47;100772.96;;;19.38;100.00
37878;BME280;23715;53.652;8.516;2023-08-06T20:38:47;100778.80;;;18.95;100.00
37878;BME280;23715;53.652;8.516;2023-08-06T20:43:53;100785.55;;;18.69;100.00
37878;BME280;23715;53.652;8.516;2023-08-06T20:48:52;100805.08;;;18.20;100.00
37878;BME280;23715;53.652;8.516;2023-08-06T20:53:52;100826.45;;;18.65;100.00
37878;BME280;23715;53.652;8.516;2023-08-06T20:58:53;100817.94;;;18.83;100.00
37878;BME280;23715;53.652;8.516;2023-08-06T21:03:53;100820.30;;;18.67;100.00
37878;BME280;23715;53.652;8.516;2023-08-06T21:08:53;100855.77;;;18.59;100.00
37878;BME280;23715;53.652;8.516;2023-08-06T21:13:53;100871.50;;;18.90;100.00
37878;BME280;23715;53.652;8.516;2023-08-06T21:18:54;100891.39;;;19.10;100.00
37878;BME280;23715;53.652;8.516;2023-08-06T21:23:54;100907.63;;;19.22;100.00
37878;BME280;23715;53.652;8.516;2023-08-06T21:28:54;100908.07;;;19.56;100.00
37878;BME280;23715;53.652;8.516;2023-08-06T21:33:54;100895.44;;;19.44;100.00
37878;BME280;23715;53.652;8.516;2023-08-06T21:38:55;100891.69;;;19.60;100.00
37878;BME280;23715;53.652;8.516;2023-08-06T21:43:55;100882.98;;;19.45;100.00
37878;BME280;23715;53.652;8.516;2023-08-06T21:48:56;100881.98;;;19.42;100.00
37878;BME280;23715;53.652;8.516;2023-08-06T21:53:56;100877.05;;;19.42;100.00
37878;BME280;23715;53.652;8.516;2023-08-06T21:58:59;100876.69;;;19.15;100.00
37878;BME280;23715;53.652;8.516;2023-08-06T22:04:00;100874.80;;;19.45;100.00
37878;BME280;23715;53.652;8.516;2023-08-06T22:09:01;100858.87;;;19.23;100.00
37878;BME280;23715;53.652;8.516;2023-08-06T22:14:01;100859.63;;;19.17;100.00
37878;BME280;23715;53.652;8.516;2023-08-06T22:19:01;100865.95;;;19.58;100.00
37878;BME280;23715;53.652;8.516;2023-08-06T22:24:01;100847.35;;;19.58;100.00
37878;BME280;23715;53.652;8.516;2023-08-06T22:29:02;100835.62;;;19.83;100.00
37878;BME280;23715;53.652;8.516;2023-08-06T22:34:02;100828.23;;;19.98;100.00
37878;BME280;23715;53.652;8.516;2023-08-06T22:39:02;100809.69;;;19.94;100.00
37878;BME280;23715;53.652;8.516;2023-08-06T22:44:03;100805.35;;;19.52;100.00
37878;BME280;23715;53.652;8.516;2023-08-06T22:49:02;100803.59;;;19.81;100.00
37878;BME280;23715;53.652;8.516;2023-08-06T22:54:02;100792.92;;;19.86;100.00
37878;BME280;23715;53.652;8.516;2023-08-06T22:59:03;100795.62;;;19.39;100.00
37878;BME280;23715;53.652;8.516;2023-08-06T23:04:03;100801.73;;;19.15;100.00
37878;BME280;23715;53.652;8.516;2023-08-06T23:09:02;100806.45;;;18.91;100.00
37878;BME280;23715;53.652;8.516;2023-08-06T23:14:03;100807.55;;;19.12;100.00
37878;BME280;23715;53.652;8.516;2023-08-06T23:19:03;100807.59;;;19.08;100.00
37878;BME280;23715;53.652;8.516;2023-08-06T23:24:03;100815.48;;;18.54;100.00
37878;BME280;23715;53.652;8.516;2023-08-06T23:29:03;100815.46;;;18.73;100.00
37878;BME280;23715;53.652;8.516;2023-08-06T23:34:03;100807.70;;;18.66;100.00
37878;BME280;23715;53.652;8.516;2023-08-06T23:39:06;100797.84;;;18.80;100.00
37878;BME280;23715;53.652;8.516;2023-08-06T23:44:08;100792.87;;;18.49;100.00
37878;BME280;23715;53.652;8.516;2023-08-06T23:49:08;100790.82;;;19.15;100.00
37878;BME280;23715;53.652;8.516;2023-08-06T23:54:08;100793.02;;;18.71;100.00
37878;BME280;23715;53.652;8.516;2023-08-06T23:59:08;100797.70;;;18.77;100.00
